Terminal Aerodrome Forecast
Issued by NWS

Home | Current Version | Previous Version | Text Only | Print | Product List | Glossary On
Versions: 1 2 3 4 5 6 7 8 9 10 11 12 13 14 15 16 17 18 19 20 21 22 23 24 25 26 27 28 29 30 31 32 33
000
FTUS45 KABQ 012300
TAFLVS
TAF
KLVS 012340Z 0200/0224 19013KT 1/4SM FZFG OVC002
     FM020200 16008KT 1/2SM FZFG OVC004
     FM020800 22007KT 1SM BR SCT005 SCT200
     FM021600 26014G20KT P6SM SCT200=

USA.gov is the U.S. government's official web portal to all federal, state and local government web resources and services.